Aviation Digital Data Service (ADDS)

Output produced by METARs form (2055 UTC 29 May 2017)
found at http://www.aviationweather.gov/adds/metars/
 
TAF TDPD 291600Z 2918/3018 11012KT 9999 SCT018 
     TEMPO 2918/2921 SHRA BKN014 SCT036